createdAt,value
2019-03-28T00:00:23.726Z,9.10
2019-03-28T00:01:02.183Z,9.73
2019-03-28T00:01:36.860Z,8.53
2019-03-28T00:02:11.794Z,8.20
2019-03-28T00:02:45.335Z,8.58
2019-03-28T00:03:18.384Z,9.08
2019-03-28T00:03:52.120Z,8.65
2019-03-28T00:04:25.312Z,8.83
2019-03-28T00:04:58.744Z,8.40
2019-03-28T00:05:33.135Z,8.78
2019-03-28T00:06:06.247Z,9.60
2019-03-28T00:06:39.633Z,8.45
2019-03-28T00:07:13.091Z,9.20
2019-03-28T00:07:46.601Z,9.20
2019-03-28T00:08:19.667Z,9.25
2019-03-28T00:08:53.213Z,9.38
2019-03-28T00:09:27.096Z,9.10
2019-03-28T00:10:00.325Z,8.55
2019-03-28T00:10:33.396Z,8.85
2019-03-28T00:11:06.461Z,8.70
2019-03-28T00:11:39.543Z,9.38
2019-03-28T00:12:12.596Z,9.43
2019-03-28T00:12:46.099Z,8.73
2019-03-28T00:13:19.152Z,9.45
2019-03-28T00:13:52.274Z,8.00
2019-03-28T00:14:25.606Z,8.90
2019-03-28T00:14:59.043Z,8.20
2019-03-28T00:15:33.072Z,9.53
2019-03-28T00:16:06.288Z,9.63
2019-03-28T00:16:39.335Z,9.20
2019-03-28T00:17:12.458Z,8.63
2019-03-28T00:17:45.505Z,9.58
2019-03-28T00:18:18.553Z,8.53
2019-03-28T00:18:51.600Z,8.58
2019-03-28T00:19:24.646Z,9.00
2019-03-28T00:19:57.679Z,9.05
2019-03-28T00:20:30.741Z,9.45
2019-03-28T00:21:04.146Z,8.50
2019-03-28T00:21:37.192Z,9.03
2019-03-28T00:22:11.548Z,8.70
2019-03-28T00:23:04.199Z,8.95
2019-03-28T00:23:55.659Z,8.95
2019-03-28T00:24:39.584Z,8.65
2019-03-28T00:25:14.422Z,8.45
2019-03-28T00:25:47.458Z,8.13
2019-03-28T00:26:29.912Z,7.70
2019-03-28T00:26:55.679Z,8.53
2019-03-28T00:27:28.732Z,8.05
2019-03-28T00:28:01.804Z,8.50
2019-03-28T00:28:35.279Z,9.00
2019-03-28T00:29:08.329Z,8.33
2019-03-28T00:29:41.457Z,8.75
2019-03-28T00:30:16.144Z,9.00
2019-03-28T00:30:49.217Z,8.30
2019-03-28T00:31:22.636Z,7.87
2019-03-28T00:31:55.771Z,8.25
2019-03-28T00:32:28.841Z,8.80
2019-03-28T00:33:01.891Z,8.08
2019-03-28T00:33:35.109Z,8.90
2019-03-28T00:34:08.138Z,8.45
2019-03-28T00:34:41.582Z,8.78
2019-03-28T00:35:14.620Z,8.50
2019-03-28T00:35:47.677Z,8.83
2019-03-28T00:36:20.727Z,8.23
2019-03-28T00:36:53.780Z,8.53
2019-03-28T00:37:26.823Z,8.95
2019-03-28T00:38:00.160Z,8.88
2019-03-28T00:38:33.411Z,8.95
2019-03-28T00:39:07.045Z,7.72
2019-03-28T00:39:40.207Z,8.33
2019-03-28T00:40:13.662Z,7.47
2019-03-28T00:40:48.424Z,7.62
2019-03-28T00:41:21.837Z,8.68
2019-03-28T00:41:55.690Z,8.13
2019-03-28T00:42:28.745Z,8.05
2019-03-28T00:43:01.782Z,7.15
2019-03-28T00:43:34.832Z,8.20
2019-03-28T00:44:08.227Z,8.48
2019-03-28T00:44:41.377Z,7.78
2019-03-28T00:45:14.691Z,7.60
2019-03-28T00:45:48.128Z,7.30
2019-03-28T00:46:21.252Z,7.42
2019-03-28T00:46:54.415Z,7.90
2019-03-28T00:47:27.459Z,8.28
2019-03-28T00:48:01.230Z,8.18
2019-03-28T00:48:34.771Z,9.05
2019-03-28T00:49:07.963Z,8.55
2019-03-28T00:49:41.172Z,8.43
2019-03-28T00:50:14.408Z,7.92
2019-03-28T00:50:47.497Z,8.00
2019-03-28T00:51:21.685Z,8.80
2019-03-28T00:51:54.699Z,7.40
2019-03-28T00:52:27.744Z,8.45
2019-03-28T00:53:00.792Z,8.00
2019-03-28T00:53:34.290Z,7.72
2019-03-28T00:54:07.412Z,8.08
2019-03-28T00:54:40.876Z,7.83
2019-03-28T00:55:13.929Z,7.75
2019-03-28T00:55:47.429Z,8.50
2019-03-28T00:56:21.088Z,7.33
2019-03-28T00:56:54.205Z,7.37
2019-03-28T00:57:27.206Z,8.80
2019-03-28T00:58:02.176Z,7.35
2019-03-28T00:58:35.465Z,7.80
2019-03-28T00:59:10.407Z,8.03
2019-03-28T00:59:43.494Z,8.28
2019-03-28T01:00:16.952Z,8.25
2019-03-28T01:00:50.030Z,8.10
2019-03-28T01:01:23.106Z,6.75
2019-03-28T01:01:56.284Z,8.13
2019-03-28T01:02:29.558Z,8.10
2019-03-28T01:03:02.612Z,8.48
2019-03-28T01:03:36.422Z,7.80
2019-03-28T01:04:09.640Z,8.05
2019-03-28T01:04:42.693Z,8.88
2019-03-28T01:05:15.742Z,8.70
2019-03-28T01:05:48.795Z,7.78
2019-03-28T01:06:22.176Z,8.30
2019-03-28T01:06:55.234Z,8.15
2019-03-28T01:07:28.306Z,7.45
2019-03-28T01:08:01.353Z,8.70
2019-03-28T01:08:34.421Z,8.33
2019-03-28T01:09:09.427Z,8.05
2019-03-28T01:09:42.475Z,8.30
2019-03-28T01:10:15.531Z,8.60
2019-03-28T01:10:48.576Z,8.68
2019-03-28T01:11:21.987Z,7.60
2019-03-28T01:11:55.030Z,8.45
2019-03-28T01:12:29.317Z,8.63
2019-03-28T01:13:02.385Z,7.45
2019-03-28T01:13:35.437Z,8.10
2019-03-28T01:14:08.481Z,8.30
2019-03-28T01:14:41.677Z,8.53
2019-03-28T01:15:14.806Z,8.68
2019-03-28T01:15:47.867Z,8.18
2019-03-28T01:16:20.904Z,8.85
2019-03-28T01:16:53.971Z,8.20
2019-03-28T01:17:27.009Z,8.15
2019-03-28T01:18:00.241Z,8.75
2019-03-28T01:18:33.358Z,8.50
2019-03-28T01:19:06.695Z,9.30
2019-03-28T01:19:40.067Z,8.08
2019-03-28T01:20:13.497Z,9.18
2019-03-28T01:20:47.250Z,8.58
2019-03-28T01:21:20.669Z,7.70
2019-03-28T01:21:53.711Z,7.60
2019-03-28T01:22:27.089Z,9.60
2019-03-28T01:23:00.490Z,8.60
2019-03-28T01:23:33.958Z,8.55
2019-03-28T01:24:07.038Z,8.20
2019-03-28T01:24:40.466Z,8.50
2019-03-28T01:25:13.831Z,8.00
2019-03-28T01:25:46.889Z,7.85
2019-03-28T01:26:20.664Z,8.53
2019-03-28T01:26:57.446Z,8.05
2019-03-28T01:27:29.432Z,8.25
2019-03-28T01:28:02.489Z,8.90
2019-03-28T01:28:35.527Z,8.90
2019-03-28T01:29:08.571Z,7.92
2019-03-28T01:29:41.672Z,8.60
2019-03-28T01:30:15.356Z,8.88
2019-03-28T01:30:48.767Z,7.78
2019-03-28T01:31:21.901Z,8.05
2019-03-28T01:31:54.943Z,7.80
2019-03-28T01:32:28.445Z,7.85
2019-03-28T01:33:01.472Z,8.63
2019-03-28T01:33:34.523Z,8.15
2019-03-28T01:34:08.130Z,8.65
2019-03-28T01:34:41.238Z,8.85
2019-03-28T01:35:14.324Z,8.13
2019-03-28T01:35:48.223Z,8.90
2019-03-28T01:36:21.439Z,7.67
2019-03-28T01:36:54.577Z,7.87
2019-03-28T01:37:29.522Z,8.60
2019-03-28T01:38:03.139Z,8.90
2019-03-28T01:38:36.185Z,8.95
2019-03-28T01:39:09.237Z,8.08
2019-03-28T01:39:42.461Z,8.30
2019-03-28T01:40:15.551Z,9.03
2019-03-28T01:40:48.627Z,8.28
2019-03-28T01:41:21.689Z,7.70
2019-03-28T01:41:54.744Z,7.40
2019-03-28T01:42:28.136Z,8.35
2019-03-28T01:43:01.305Z,8.45
2019-03-28T01:43:34.347Z,8.00
2019-03-28T01:44:07.396Z,8.85
2019-03-28T01:44:40.443Z,8.05
2019-03-28T01:45:13.492Z,7.78
2019-03-28T01:45:48.415Z,7.85
2019-03-28T01:46:21.487Z,7.92
2019-03-28T01:46:54.533Z,8.43
2019-03-28T01:47:27.576Z,7.67
2019-03-28T01:48:00.639Z,8.23
2019-03-28T01:48:33.767Z,7.60
2019-03-28T01:49:07.238Z,8.70
2019-03-28T01:49:40.756Z,8.00
2019-03-28T01:50:13.808Z,7.30
2019-03-28T01:50:46.843Z,7.58
2019-03-28T01:51:19.892Z,7.72
2019-03-28T01:51:52.959Z,8.13
2019-03-28T01:52:26.360Z,8.45
2019-03-28T01:52:59.407Z,7.92
2019-03-28T01:53:32.456Z,7.90
2019-03-28T01:54:05.547Z,8.15
2019-03-28T01:54:38.542Z,7.85
2019-03-28T01:55:11.734Z,7.53
2019-03-28T01:55:45.173Z,7.95
2019-03-28T01:56:18.211Z,7.50
2019-03-28T01:56:51.269Z,7.87
2019-03-28T01:57:24.344Z,8.75
2019-03-28T01:57:57.738Z,8.45
2019-03-28T01:58:30.783Z,7.67
2019-03-28T01:59:03.833Z,8.93
2019-03-28T01:59:37.748Z,7.97
2019-03-28T02:00:11.120Z,7.55
2019-03-28T02:00:44.144Z,8.33
2019-03-28T02:01:17.189Z,7.40
2019-03-28T02:01:50.250Z,7.60
2019-03-28T02:02:23.305Z,7.75
2019-03-28T02:02:56.745Z,7.78
2019-03-28T02:03:29.799Z,7.22
2019-03-28T02:04:03.202Z,6.85
2019-03-28T02:04:36.246Z,7.40
2019-03-28T02:05:09.300Z,7.83
2019-03-28T02:05:42.844Z,7.50
2019-03-28T02:06:16.315Z,7.15
2019-03-28T02:06:49.745Z,6.85
2019-03-28T02:07:22.807Z,8.05
2019-03-28T02:07:55.860Z,7.60
2019-03-28T02:08:28.939Z,7.05
2019-03-28T02:09:02.183Z,7.80
2019-03-28T02:09:35.232Z,7.70
2019-03-28T02:10:08.399Z,7.37
2019-03-28T02:10:41.459Z,7.62
2019-03-28T02:11:15.098Z,7.85
2019-03-28T02:11:48.691Z,7.80
2019-03-28T02:12:21.769Z,7.58
2019-03-28T02:12:54.826Z,8.05
2019-03-28T02:13:27.878Z,8.35
2019-03-28T02:14:00.957Z,7.00
2019-03-28T02:14:34.160Z,8.08
2019-03-28T02:15:08.935Z,7.67
2019-03-28T02:15:41.998Z,7.45
2019-03-28T02:16:15.406Z,7.65
2019-03-28T02:16:50.305Z,7.55
2019-03-28T02:17:23.521Z,6.92
2019-03-28T02:17:56.539Z,7.95
2019-03-28T02:18:29.579Z,6.87
2019-03-28T02:19:03.776Z,7.40
2019-03-28T02:19:36.827Z,7.22
2019-03-28T02:20:10.425Z,7.60
2019-03-28T02:20:43.557Z,7.22
2019-03-28T02:21:17.097Z,7.53
2019-03-28T02:21:50.554Z,7.72
2019-03-28T02:22:24.493Z,7.78
2019-03-28T02:22:57.557Z,7.30
2019-03-28T02:23:30.985Z,6.70
2019-03-28T02:24:04.134Z,7.08
2019-03-28T02:24:38.776Z,7.65
2019-03-28T02:25:12.227Z,7.50
2019-03-28T02:25:45.290Z,7.25
2019-03-28T02:26:18.349Z,7.05
2019-03-28T02:26:51.405Z,8.15
2019-03-28T02:27:24.817Z,6.78
2019-03-28T02:27:58.220Z,7.87
2019-03-28T02:28:31.279Z,7.15
2019-03-28T02:29:04.312Z,7.28
2019-03-28T02:29:37.355Z,7.42
2019-03-28T02:30:10.534Z,7.28
2019-03-28T02:30:45.540Z,7.95
2019-03-28T02:31:18.463Z,7.20
2019-03-28T02:31:51.510Z,6.90
2019-03-28T02:32:24.593Z,7.40
2019-03-28T02:32:57.658Z,7.12
2019-03-28T02:33:30.720Z,7.15
2019-03-28T02:34:04.111Z,7.00
2019-03-28T02:34:37.440Z,7.40
2019-03-28T02:35:10.999Z,7.12
2019-03-28T02:35:44.329Z,6.90
2019-03-28T02:36:17.921Z,6.10
2019-03-28T02:36:52.811Z,7.60
2019-03-28T02:37:25.763Z,6.42
2019-03-28T02:37:59.999Z,6.90
2019-03-28T02:38:33.847Z,6.72
2019-03-28T02:39:07.027Z,7.30
2019-03-28T02:39:40.089Z,7.37
2019-03-28T02:40:13.141Z,7.65
2019-03-28T02:40:46.309Z,7.12
2019-03-28T02:41:19.714Z,7.53
2019-03-28T02:41:53.292Z,6.60
2019-03-28T02:42:27.743Z,7.15
2019-03-28T02:43:01.358Z,6.78
2019-03-28T02:43:34.392Z,6.87
2019-03-28T02:44:07.793Z,6.80
2019-03-28T02:44:40.835Z,7.53
2019-03-28T02:45:13.981Z,7.20
2019-03-28T02:45:47.023Z,6.70
2019-03-28T02:46:20.085Z,6.35
2019-03-28T02:46:53.126Z,6.95
2019-03-28T02:47:26.216Z,6.80
2019-03-28T02:48:00.056Z,6.87
2019-03-28T02:48:33.425Z,6.05
2019-03-28T02:49:06.472Z,6.83
2019-03-28T02:49:39.573Z,6.80
2019-03-28T02:50:12.692Z,6.58
2019-03-28T02:50:46.011Z,6.00
2019-03-28T02:51:19.059Z,6.40
2019-03-28T02:51:52.106Z,7.10
2019-03-28T02:52:25.170Z,7.08
2019-03-28T02:52:58.618Z,6.87
2019-03-28T02:53:31.656Z,6.78
2019-03-28T02:54:05.516Z,6.83
2019-03-28T02:54:39.048Z,6.50
2019-03-28T02:55:12.421Z,6.60
2019-03-28T02:55:45.776Z,6.85
2019-03-28T02:56:18.820Z,6.42
2019-03-28T02:56:52.359Z,7.22
2019-03-28T02:57:40.258Z,6.17
2019-03-28T02:58:00.657Z,6.97
2019-03-28T02:58:34.059Z,6.15
2019-03-28T02:59:07.117Z,6.55
2019-03-28T02:59:40.152Z,6.37
2019-03-28T03:00:13.481Z,6.10
2019-03-28T03:00:47.843Z,6.33
2019-03-28T03:01:21.669Z,6.53
2019-03-28T03:01:54.749Z,7.15
2019-03-28T03:02:28.257Z,5.90
2019-03-28T03:03:01.301Z,5.78
2019-03-28T03:03:35.139Z,6.22
2019-03-28T03:04:08.222Z,6.17
2019-03-28T03:04:41.607Z,6.03
2019-03-28T03:05:14.735Z,6.53
2019-03-28T03:05:47.813Z,6.90
2019-03-28T03:06:21.173Z,6.20
2019-03-28T03:06:54.220Z,6.17
2019-03-28T03:07:27.401Z,6.80
2019-03-28T03:08:00.876Z,5.80
2019-03-28T03:08:33.971Z,6.22
2019-03-28T03:09:09.366Z,6.75
2019-03-28T03:09:42.512Z,6.22
2019-03-28T03:10:15.576Z,5.78
2019-03-28T03:10:49.053Z,6.35
2019-03-28T03:11:22.112Z,5.95
2019-03-28T03:11:55.478Z,5.78
2019-03-28T03:12:29.420Z,5.90
2019-03-28T03:13:02.486Z,6.45
2019-03-28T03:13:35.550Z,5.40
2019-03-28T03:14:08.630Z,6.00
2019-03-28T03:14:41.653Z,6.20
2019-03-28T03:15:14.833Z,6.20
2019-03-28T03:15:47.904Z,6.58
2019-03-28T03:16:21.485Z,5.92
2019-03-28T03:16:55.369Z,5.97
2019-03-28T03:17:28.379Z,6.87
2019-03-28T03:18:01.615Z,6.10
2019-03-28T03:18:34.667Z,6.45
2019-03-28T03:19:09.662Z,6.47
2019-03-28T03:19:42.929Z,6.42
2019-03-28T03:20:15.988Z,6.35
2019-03-28T03:20:51.352Z,6.25
2019-03-28T03:21:24.348Z,6.28
2019-03-28T03:21:57.439Z,5.47
2019-03-28T03:22:30.449Z,6.17
2019-03-28T03:23:03.908Z,5.87
2019-03-28T03:23:36.971Z,5.70
2019-03-28T03:24:10.331Z,6.70
2019-03-28T03:24:43.861Z,6.20
2019-03-28T03:25:16.923Z,6.33
2019-03-28T03:25:49.967Z,6.12
2019-03-28T03:26:23.051Z,6.00
2019-03-28T03:26:56.106Z,6.47
2019-03-28T03:27:29.603Z,6.53
2019-03-28T03:28:02.725Z,6.62
2019-03-28T03:28:36.137Z,6.12
2019-03-28T03:29:09.936Z,5.30
2019-03-28T03:29:43.315Z,5.70
2019-03-28T03:30:17.101Z,5.60
2019-03-28T03:30:50.276Z,6.03
2019-03-28T03:31:24.932Z,6.20
2019-03-28T03:31:58.221Z,6.40
2019-03-28T03:32:31.261Z,6.00
2019-03-28T03:33:05.143Z,5.67
2019-03-28T03:33:38.191Z,6.10
2019-03-28T03:34:11.250Z,6.55
2019-03-28T03:34:44.832Z,5.83
2019-03-28T03:35:19.057Z,6.60
2019-03-28T03:35:52.466Z,6.15
2019-03-28T03:36:26.399Z,6.20
2019-03-28T03:37:00.339Z,6.50
2019-03-28T03:37:33.731Z,6.15
2019-03-28T03:38:06.889Z,6.05
2019-03-28T03:38:40.353Z,5.78
2019-03-28T03:39:14.033Z,5.60
2019-03-28T03:39:47.097Z,5.20
2019-03-28T03:40:20.147Z,6.10
2019-03-28T03:40:54.735Z,5.90
2019-03-28T03:41:28.359Z,6.15
2019-03-28T03:42:02.011Z,6.17
2019-03-28T03:42:35.361Z,6.25
2019-03-28T03:43:08.767Z,5.70
2019-03-28T03:43:43.445Z,6.72
2019-03-28T03:44:16.961Z,6.15
2019-03-28T03:44:51.891Z,5.92
2019-03-28T03:45:24.861Z,5.85
2019-03-28T03:45:58.671Z,6.00
2019-03-28T03:46:31.712Z,5.30
2019-03-28T03:47:04.759Z,5.65
2019-03-28T03:47:37.821Z,5.25
2019-03-28T03:48:12.002Z,5.35
2019-03-28T03:48:45.275Z,6.28
2019-03-28T03:49:18.314Z,5.10
2019-03-28T03:49:51.373Z,5.67
2019-03-28T03:50:31.030Z,5.90
2019-03-28T03:51:04.440Z,5.95
2019-03-28T03:51:37.593Z,6.53
2019-03-28T03:52:10.639Z,5.87
2019-03-28T03:52:43.729Z,5.30
2019-03-28T03:53:18.837Z,5.30
2019-03-28T03:53:52.164Z,5.25
2019-03-28T03:54:25.561Z,5.72
2019-03-28T03:54:58.712Z,6.10
2019-03-28T03:55:31.773Z,4.90
2019-03-28T03:56:05.350Z,5.03
2019-03-28T03:56:38.384Z,5.37
2019-03-28T03:57:11.502Z,5.10
2019-03-28T03:57:44.877Z,4.67
2019-03-28T03:58:18.802Z,5.35
2019-03-28T03:58:52.285Z,4.33
2019-03-28T03:59:26.043Z,4.83
2019-03-28T03:59:59.115Z,5.20
2019-03-28T04:00:33.816Z,5.30
2019-03-28T04:01:07.689Z,5.30
2019-03-28T04:01:40.763Z,5.67
2019-03-28T04:02:13.925Z,5.60
2019-03-28T04:02:46.968Z,4.87
2019-03-28T04:03:20.013Z,4.72
2019-03-28T04:03:53.078Z,5.22
2019-03-28T04:04:26.626Z,5.30
2019-03-28T04:04:59.729Z,4.72
2019-03-28T04:05:32.778Z,5.90
2019-03-28T04:06:05.825Z,5.33
2019-03-28T04:06:38.887Z,5.55
2019-03-28T04:07:11.939Z,5.28
2019-03-28T04:07:45.005Z,5.40
2019-03-28T04:08:18.056Z,5.95
2019-03-28T04:08:51.506Z,5.62
2019-03-28T04:09:24.585Z,5.92
2019-03-28T04:09:57.765Z,5.20
2019-03-28T04:10:30.928Z,5.28
2019-03-28T04:11:04.822Z,5.40
2019-03-28T04:11:37.937Z,6.03
2019-03-28T04:12:12.131Z,5.53
2019-03-28T04:12:45.150Z,5.12
2019-03-28T04:13:18.196Z,5.15
2019-03-28T04:13:51.249Z,5.00
2019-03-28T04:14:24.293Z,5.97
2019-03-28T04:14:57.327Z,5.83
2019-03-28T04:15:30.834Z,5.60
2019-03-28T04:16:04.011Z,5.22
2019-03-28T04:16:37.260Z,5.40
2019-03-28T04:17:10.301Z,5.20
2019-03-28T04:17:43.347Z,5.90
2019-03-28T04:18:16.398Z,5.33
2019-03-28T04:18:49.816Z,5.12
2019-03-28T04:19:22.942Z,5.85
2019-03-28T04:19:58.703Z,6.42
2019-03-28T04:20:31.877Z,5.12
2019-03-28T04:21:05.022Z,5.75
2019-03-28T04:21:38.100Z,5.60
2019-03-28T04:22:11.150Z,5.47
2019-03-28T04:22:44.210Z,4.65
2019-03-28T04:23:17.308Z,5.37
2019-03-28T04:23:50.695Z,5.08
2019-03-28T04:24:24.124Z,5.45
2019-03-28T04:24:57.157Z,6.50
2019-03-28T04:25:30.212Z,5.40
2019-03-28T04:26:03.362Z,5.28
2019-03-28T04:26:36.771Z,5.20
2019-03-28T04:27:09.969Z,5.80
2019-03-28T04:27:43.038Z,5.70
2019-03-28T04:28:30.730Z,5.25
2019-03-28T04:28:51.743Z,5.22
2019-03-28T04:29:25.231Z,5.60
2019-03-28T04:29:58.737Z,5.85
2019-03-28T04:30:32.148Z,5.10
2019-03-28T04:31:05.187Z,5.37
2019-03-28T04:31:38.235Z,6.00
2019-03-28T04:32:13.321Z,5.65
2019-03-28T04:32:46.833Z,5.80
2019-03-28T04:33:20.060Z,5.83
2019-03-28T04:33:53.115Z,5.97
2019-03-28T04:34:26.598Z,5.80
2019-03-28T04:35:00.072Z,5.20
2019-03-28T04:35:33.129Z,5.10
2019-03-28T04:36:06.487Z,5.28
2019-03-28T04:36:40.794Z,5.45
2019-03-28T04:37:15.052Z,5.58
2019-03-28T04:37:49.111Z,5.58
2019-03-28T04:38:22.366Z,5.15
2019-03-28T04:38:55.417Z,5.08
2019-03-28T04:39:28.810Z,5.30
2019-03-28T04:40:01.871Z,5.33
2019-03-28T04:40:34.917Z,5.10
2019-03-28T04:41:08.418Z,5.22
2019-03-28T04:41:41.463Z,4.95
2019-03-28T04:42:14.525Z,5.10
2019-03-28T04:42:47.572Z,5.30
2019-03-28T04:43:20.982Z,4.85
2019-03-28T04:43:55.938Z,4.95
2019-03-28T04:44:28.928Z,5.50
2019-03-28T04:45:01.982Z,6.42
2019-03-28T04:45:35.423Z,5.55
2019-03-28T04:46:08.865Z,5.78
2019-03-28T04:46:42.234Z,5.10
2019-03-28T04:47:15.671Z,5.72
2019-03-28T04:47:48.737Z,4.90
2019-03-28T04:48:22.167Z,5.60
2019-03-28T04:48:55.216Z,4.90
2019-03-28T04:49:28.300Z,5.58
2019-03-28T04:50:01.674Z,4.40
2019-03-28T04:50:34.733Z,4.40
2019-03-28T04:51:07.789Z,5.08
2019-03-28T04:51:40.851Z,4.92
2019-03-28T04:52:13.905Z,4.92
2019-03-28T04:52:46.952Z,5.60
2019-03-28T04:53:20.330Z,4.70
2019-03-28T04:53:56.196Z,5.25
2019-03-28T04:54:28.240Z,5.53
2019-03-28T04:55:01.709Z,4.78
2019-03-28T04:55:34.877Z,5.45
2019-03-28T04:56:08.012Z,4.90
2019-03-28T04:56:41.085Z,5.45
2019-03-28T04:57:14.137Z,5.40
2019-03-28T04:57:47.185Z,5.50
2019-03-28T04:58:21.693Z,4.97
2019-03-28T04:58:55.109Z,5.35
2019-03-28T04:59:28.631Z,5.97
2019-03-28T05:00:01.677Z,5.53
2019-03-28T05:00:34.768Z,5.62
2019-03-28T05:01:08.704Z,5.08
2019-03-28T05:01:42.297Z,4.95
2019-03-28T05:02:15.672Z,6.05
2019-03-28T05:02:49.465Z,6.10
2019-03-28T05:03:23.474Z,5.67
2019-03-28T05:03:56.565Z,4.90
2019-03-28T05:04:29.623Z,6.03
2019-03-28T05:05:04.554Z,5.70
2019-03-28T05:05:37.937Z,5.97
2019-03-28T05:06:11.445Z,5.05
2019-03-28T05:06:44.517Z,5.40
2019-03-28T05:07:17.573Z,4.97
2019-03-28T05:07:50.619Z,5.25
2019-03-28T05:08:23.840Z,5.35
2019-03-28T05:08:57.361Z,4.78
2019-03-28T05:09:30.332Z,4.75
2019-03-28T05:10:03.680Z,4.30
2019-03-28T05:10:38.665Z,4.90
2019-03-28T05:11:11.630Z,4.85
2019-03-28T05:11:44.684Z,4.60
2019-03-28T05:12:18.094Z,5.03
2019-03-28T05:12:51.525Z,4.90
2019-03-28T05:13:25.073Z,4.75
2019-03-28T05:13:58.860Z,5.78
2019-03-28T05:14:31.916Z,4.90
2019-03-28T05:15:07.486Z,4.85
2019-03-28T05:15:40.898Z,3.90
2019-03-28T05:16:14.406Z,3.72
2019-03-28T05:16:48.396Z,4.03
2019-03-28T05:17:23.310Z,4.22
2019-03-28T05:17:56.385Z,3.95
2019-03-28T05:18:29.870Z,4.15
2019-03-28T05:19:03.200Z,4.33
2019-03-28T05:19:36.266Z,4.65
2019-03-28T05:20:09.403Z,4.00
2019-03-28T05:20:42.472Z,4.33
2019-03-28T05:21:15.531Z,4.15
2019-03-28T05:21:48.583Z,3.92
2019-03-28T05:22:22.431Z,4.22
2019-03-28T05:22:56.001Z,3.62
2019-03-28T05:23:29.050Z,3.75
2019-03-28T05:24:02.161Z,3.80
2019-03-28T05:24:35.977Z,4.00
2019-03-28T05:25:09.233Z,4.03
2019-03-28T05:25:42.306Z,3.80
2019-03-28T05:26:15.764Z,4.12
2019-03-28T05:26:49.126Z,4.12
2019-03-28T05:27:22.172Z,3.50
2019-03-28T05:27:55.257Z,3.83
2019-03-28T05:28:28.319Z,3.60
2019-03-28T05:29:01.374Z,3.10
2019-03-28T05:29:35.207Z,3.33
2019-03-28T05:30:10.015Z,3.40
2019-03-28T05:30:43.462Z,3.45
2019-03-28T05:31:16.509Z,3.62
2019-03-28T05:31:49.585Z,3.20
2019-03-28T05:32:23.307Z,3.72
2019-03-28T05:32:56.315Z,3.40
2019-03-28T05:33:29.709Z,3.12
2019-03-28T05:34:03.473Z,3.10
2019-03-28T05:34:36.825Z,3.25
2019-03-28T05:35:10.274Z,2.80
2019-03-28T05:35:43.603Z,2.67
2019-03-28T05:36:16.654Z,2.75
2019-03-28T05:36:52.142Z,2.52
2019-03-28T05:37:24.549Z,3.10
2019-03-28T05:37:57.608Z,2.95
2019-03-28T05:38:30.972Z,2.45
2019-03-28T05:39:06.100Z,2.20
2019-03-28T05:39:39.151Z,2.40
2019-03-28T05:40:12.595Z,2.35
2019-03-28T05:40:46.584Z,2.00
2019-03-28T05:41:21.126Z,2.05
2019-03-28T05:41:54.188Z,2.33
2019-03-28T05:42:27.247Z,1.98
2019-03-28T05:43:02.669Z,2.12
2019-03-28T05:43:35.781Z,2.45
2019-03-28T05:44:09.260Z,2.00
2019-03-28T05:44:42.287Z,2.42
2019-03-28T05:45:15.861Z,2.17
2019-03-28T05:45:49.322Z,2.20
2019-03-28T05:46:22.731Z,2.30
2019-03-28T05:46:55.969Z,2.00
2019-03-28T05:47:29.526Z,2.25
2019-03-28T05:48:02.707Z,2.47
2019-03-28T05:48:36.141Z,2.37
2019-03-28T05:49:09.193Z,2.52
2019-03-28T05:49:42.262Z,2.27
2019-03-28T05:50:15.636Z,1.80
2019-03-28T05:50:49.072Z,2.30
2019-03-28T05:51:22.917Z,2.40
2019-03-28T05:51:55.964Z,2.17
2019-03-28T05:52:29.232Z,2.22
2019-03-28T05:53:02.822Z,2.27
2019-03-28T05:53:36.347Z,2.50
2019-03-28T05:54:10.138Z,2.60
2019-03-28T05:54:43.573Z,2.40
2019-03-28T05:55:16.643Z,2.20
2019-03-28T05:55:50.096Z,2.12
2019-03-28T05:56:23.190Z,2.00
2019-03-28T05:56:56.249Z,2.22
2019-03-28T05:57:29.296Z,2.35
2019-03-28T05:58:02.381Z,2.10
2019-03-28T05:58:36.284Z,2.22
2019-03-28T05:59:11.169Z,2.30
2019-03-28T05:59:44.151Z,2.20
2019-03-28T06:00:17.662Z,2.40
2019-03-28T06:00:51.407Z,2.75
2019-03-28T06:01:24.558Z,3.25
2019-03-28T06:01:58.325Z,2.90
2019-03-28T06:02:31.609Z,2.12
2019-03-28T06:03:05.096Z,2.92
2019-03-28T06:03:38.512Z,2.65
2019-03-28T06:04:11.555Z,2.55
2019-03-28T06:04:44.607Z,2.80
2019-03-28T06:05:18.106Z,2.70
2019-03-28T06:05:51.157Z,3.00
2019-03-28T06:06:24.206Z,2.92
2019-03-28T06:06:57.284Z,2.85
2019-03-28T06:07:30.328Z,2.72
2019-03-28T06:08:03.383Z,2.90
2019-03-28T06:08:36.864Z,2.52
2019-03-28T06:09:09.845Z,3.00
2019-03-28T06:09:42.896Z,3.00
2019-03-28T06:10:18.847Z,2.80
2019-03-28T06:10:51.852Z,2.80
2019-03-28T06:11:24.888Z,3.22
2019-03-28T06:11:57.993Z,3.42
2019-03-28T06:12:31.376Z,2.90
2019-03-28T06:13:04.445Z,3.30
2019-03-28T06:13:39.059Z,3.50
2019-03-28T06:14:12.045Z,3.22
2019-03-28T06:14:45.558Z,3.08
2019-03-28T06:15:18.603Z,3.22
2019-03-28T06:15:51.689Z,3.30
2019-03-28T06:16:24.737Z,3.50
2019-03-28T06:16:59.720Z,3.42
2019-03-28T06:17:33.091Z,3.17
2019-03-28T06:18:06.643Z,3.00
2019-03-28T06:18:39.691Z,3.22
2019-03-28T06:19:13.025Z,3.25
2019-03-28T06:19:47.188Z,3.70
2019-03-28T06:20:20.239Z,3.58
2019-03-28T06:20:53.726Z,3.12
2019-03-28T06:21:26.777Z,2.80
2019-03-28T06:22:00.725Z,3.58
2019-03-28T06:22:33.784Z,3.47
2019-03-28T06:23:07.474Z,3.00
2019-03-28T06:23:40.579Z,3.20
2019-03-28T06:24:13.729Z,3.40
2019-03-28T06:24:47.213Z,3.52
2019-03-28T06:25:20.706Z,2.70
2019-03-28T06:25:53.795Z,2.75
2019-03-28T06:26:26.853Z,3.30
2019-03-28T06:26:59.909Z,3.05
2019-03-28T06:27:33.579Z,3.67
2019-03-28T06:28:06.731Z,3.25
2019-03-28T06:28:39.942Z,3.52
2019-03-28T06:29:23.302Z,3.15
2019-03-28T06:29:48.016Z,3.05
2019-03-28T06:30:21.056Z,3.40
2019-03-28T06:30:55.935Z,3.20
2019-03-28T06:31:29.427Z,3.08
2019-03-28T06:32:02.772Z,3.33
2019-03-28T06:32:42.959Z,3.00
2019-03-28T06:33:11.985Z,3.33
2019-03-28T06:33:45.417Z,2.95
2019-03-28T06:34:18.918Z,2.90
2019-03-28T06:34:52.363Z,2.72
2019-03-28T06:35:25.595Z,3.12
2019-03-28T06:35:58.640Z,3.00
2019-03-28T06:36:32.504Z,3.47
2019-03-28T06:37:06.707Z,3.17
2019-03-28T06:37:39.828Z,3.00
2019-03-28T06:38:13.452Z,3.12
2019-03-28T06:38:46.500Z,3.40
2019-03-28T06:39:20.100Z,3.05
2019-03-28T06:39:53.504Z,3.95
2019-03-28T06:40:26.664Z,3.05
2019-03-28T06:40:59.723Z,2.90
2019-03-28T06:41:32.892Z,2.90
2019-03-28T06:42:05.949Z,3.37
2019-03-28T06:42:38.980Z,3.20
2019-03-28T06:43:12.367Z,2.92
2019-03-28T06:43:45.418Z,3.37
2019-03-28T06:44:19.393Z,3.10
2019-03-28T06:44:52.824Z,2.98
2019-03-28T06:45:25.895Z,3.20
2019-03-28T06:45:59.054Z,2.83
2019-03-28T06:46:32.395Z,3.40
2019-03-28T06:47:05.594Z,3.33
2019-03-28T06:47:38.649Z,3.25
2019-03-28T06:48:12.221Z,3.52
2019-03-28T06:48:47.481Z,3.02
2019-03-28T06:49:21.594Z,3.02
2019-03-28T06:49:54.899Z,3.33
2019-03-28T06:50:28.060Z,2.83
2019-03-28T06:51:01.543Z,3.30
2019-03-28T06:51:34.579Z,3.10
2019-03-28T06:52:09.970Z,3.35
2019-03-28T06:52:42.953Z,3.65
2019-03-28T06:53:16.372Z,2.95
2019-03-28T06:53:49.417Z,3.20
2019-03-28T06:54:24.286Z,3.60
2019-03-28T06:54:58.125Z,3.00
2019-03-28T06:55:31.270Z,2.80
2019-03-28T06:56:05.081Z,3.45
2019-03-28T06:56:38.500Z,3.70
2019-03-28T06:57:11.560Z,3.25
2019-03-28T06:57:45.389Z,3.83
2019-03-28T06:58:18.467Z,2.70
2019-03-28T06:58:51.843Z,3.20
2019-03-28T06:59:36.668Z,3.25
2019-03-28T06:59:59.743Z,3.52
2019-03-28T07:00:32.799Z,3.00
2019-03-28T07:01:05.854Z,3.40
2019-03-28T07:01:38.938Z,3.52
2019-03-28T07:02:11.991Z,3.70
2019-03-28T07:02:45.030Z,3.50
2019-03-28T07:03:18.076Z,3.30
2019-03-28T07:03:51.145Z,3.40
2019-03-28T07:04:24.207Z,3.33
2019-03-28T07:04:57.261Z,3.25
2019-03-28T07:05:30.683Z,3.33
2019-03-28T07:06:04.065Z,3.15
2019-03-28T07:06:37.114Z,3.30
2019-03-28T07:07:10.223Z,3.67
2019-03-28T07:07:43.328Z,3.95
2019-03-28T07:08:16.767Z,2.72
2019-03-28T07:08:49.829Z,3.02
2019-03-28T07:09:23.661Z,3.40
2019-03-28T07:09:57.090Z,3.67
2019-03-28T07:10:30.625Z,3.60
2019-03-28T07:11:04.056Z,3.98
2019-03-28T07:11:37.250Z,3.90
2019-03-28T07:12:10.317Z,3.37
2019-03-28T07:12:44.294Z,3.77
2019-03-28T07:13:17.356Z,3.42
2019-03-28T07:13:50.403Z,3.47
2019-03-28T07:14:23.444Z,3.35
2019-03-28T07:14:59.458Z,3.80
2019-03-28T07:15:31.508Z,2.87
2019-03-28T07:16:04.553Z,2.98
2019-03-28T07:16:37.604Z,3.62
2019-03-28T07:17:11.417Z,3.42
2019-03-28T07:17:44.467Z,3.55
2019-03-28T07:18:17.931Z,3.15
2019-03-28T07:18:51.311Z,3.27
2019-03-28T07:19:24.373Z,3.90
2019-03-28T07:19:57.519Z,3.20
2019-03-28T07:20:30.573Z,3.20
2019-03-28T07:21:03.619Z,3.67
2019-03-28T07:21:37.037Z,3.35
2019-03-28T07:22:10.556Z,3.75
2019-03-28T07:22:46.011Z,3.50
2019-03-28T07:23:18.829Z,3.37
2019-03-28T07:23:51.921Z,3.70
2019-03-28T07:24:26.283Z,2.70
2019-03-28T07:24:59.621Z,3.30
2019-03-28T07:25:33.037Z,3.58